Moiese, Montana
Current Conditions -  °F | °C
As of 11:53 AM on Tuesday 27 Jan 2015 (Local Time) from KMSO Reporting Station
Clear Clear  
Wind Chill: 25°   Ceiling: Unl
Heat Index: 30°   Visibility: 10mi
Dew Point: 28°   Wind: 5mph
Humidity: 92%   Direction: 280°W
Pressure: 30.07"   Gusts: NA
Location:  47.4253°N, 114.208°W
Report Text: KMSO 271853Z 28004KT 10SM CLR M01/M02 A3007 RMK AO2 SLP215 T10111022
Loading
Personal Weather Stations






























Interactive Weather Map New forecast layout! Learn more

10-Day Weather Forecast

Advertisements
Track Severe Weather on mobile